sensor_id;sensor_type;location;lat;lon;timestamp;P1;durP1;ratioP1;P2;durP2;ratioP2
27313;SDS011;14800;48.174;9.798;2023-01-16T00:01:11;0.47;;;0.22;;
27313;SDS011;14800;48.174;9.798;2023-01-16T00:03:37;1.20;;;0.30;;
27313;SDS011;14800;48.174;9.798;2023-01-16T00:06:02;0.57;;;0.20;;
27313;SDS011;14800;48.174;9.798;2023-01-16T00:08:28;4.05;;;0.40;;
27313;SDS011;14800;48.174;9.798;2023-01-16T00:10:53;0.95;;;0.38;;
27313;SDS011;14800;48.174;9.798;2023-01-16T00:13:19;2.95;;;0.35;;
27313;SDS011;14800;48.174;9.798;2023-01-16T00:15:45;0.60;;;0.20;;
27313;SDS011;14800;48.174;9.798;2023-01-16T00:18:12;1.48;;;0.50;;
27313;SDS011;14800;48.174;9.798;2023-01-16T00:20:38;1.02;;;0.22;;
27313;SDS011;14800;48.174;9.798;2023-01-16T00:23:04;1.45;;;0.35;;
27313;SDS011;14800;48.174;9.798;2023-01-16T00:25:29;3.00;;;0.47;;
27313;SDS011;14800;48.174;9.798;2023-01-16T00:27:55;1.00;;;0.30;;
27313;SDS011;14800;48.174;9.798;2023-01-16T00:30:20;1.50;;;0.25;;
27313;SDS011;14800;48.174;9.798;2023-01-16T00:32:46;1.15;;;0.40;;
27313;SDS011;14800;48.174;9.798;2023-01-16T00:35:11;1.92;;;0.30;;
27313;SDS011;14800;48.174;9.798;2023-01-16T00:37:37;0.80;;;0.30;;
27313;SDS011;14800;48.174;9.798;2023-01-16T00:40:03;2.72;;;0.40;;
27313;SDS011;14800;48.174;9.798;2023-01-16T00:42:29;1.80;;;0.30;;
27313;SDS011;14800;48.174;9.798;2023-01-16T00:44:55;1.05;;;0.30;;
27313;SDS011;14800;48.174;9.798;2023-01-16T00:47:20;0.90;;;0.30;;
27313;SDS011;14800;48.174;9.798;2023-01-16T00:49:46;1.08;;;0.43;;
27313;SDS011;14800;48.174;9.798;2023-01-16T00:52:11;2.85;;;0.57;;
27313;SDS011;14800;48.174;9.798;2023-01-16T00:54:37;2.28;;;0.60;;
27313;SDS011;14800;48.174;9.798;2023-01-16T00:57:02;3.53;;;1.40;;
27313;SDS011;14800;48.174;9.798;2023-01-16T00:59:28;3.78;;;1.00;;
27313;SDS011;14800;48.174;9.798;2023-01-16T01:01:54;1.33;;;0.65;;
27313;SDS011;14800;48.174;9.798;2023-01-16T01:04:19;4.25;;;0.80;;
27313;SDS011;14800;48.174;9.798;2023-01-16T01:06:45;3.53;;;1.10;;
27313;SDS011;14800;48.174;9.798;2023-01-16T01:09:10;4.63;;;0.80;;
27313;SDS011;14800;48.174;9.798;2023-01-16T01:11:36;2.17;;;0.50;;
27313;SDS011;14800;48.174;9.798;2023-01-16T01:14:02;3.08;;;0.52;;
27313;SDS011;14800;48.174;9.798;2023-01-16T01:16:28;1.60;;;0.35;;
27313;SDS011;14800;48.174;9.798;2023-01-16T01:18:53;0.45;;;0.20;;
27313;SDS011;14800;48.174;9.798;2023-01-16T01:21:19;2.15;;;0.30;;
27313;SDS011;14800;48.174;9.798;2023-01-16T01:23:45;1.27;;;0.38;;
27313;SDS011;14800;48.174;9.798;2023-01-16T01:26:12;1.98;;;0.47;;
27313;SDS011;14800;48.174;9.798;2023-01-16T01:28:39;3.00;;;0.40;;
27313;SDS011;14800;48.174;9.798;2023-01-16T01:31:05;1.45;;;0.50;;
27313;SDS011;14800;48.174;9.798;2023-01-16T01:33:33;3.40;;;0.50;;
27313;SDS011;14800;48.174;9.798;2023-01-16T01:35:59;1.25;;;0.40;;
27313;SDS011;14800;48.174;9.798;2023-01-16T01:38:25;2.28;;;0.40;;
27313;SDS011;14800;48.174;9.798;2023-01-16T01:40:50;0.93;;;0.30;;
27313;SDS011;14800;48.174;9.798;2023-01-16T01:43:16;2.20;;;0.32;;
27313;SDS011;14800;48.174;9.798;2023-01-16T01:45:43;2.65;;;0.40;;
27313;SDS011;14800;48.174;9.798;2023-01-16T01:55:57;1.05;;;0.20;;
27313;SDS011;14800;48.174;9.798;2023-01-16T01:58:27;2.30;;;0.40;;
27313;SDS011;14800;48.174;9.798;2023-01-16T02:00:54;3.53;;;0.60;;
27313;SDS011;14800;48.174;9.798;2023-01-16T02:03:23;2.15;;;0.40;;
27313;SDS011;14800;48.174;9.798;2023-01-16T02:06:14;2.67;;;0.30;;
27313;SDS011;14800;48.174;9.798;2023-01-16T02:11:19;1.88;;;0.30;;
27313;SDS011;14800;48.174;9.798;2023-01-16T02:13:55;2.20;;;0.30;;
27313;SDS011;14800;48.174;9.798;2023-01-16T02:16:22;2.05;;;0.50;;
27313;SDS011;14800;48.174;9.798;2023-01-16T02:19:08;1.70;;;0.70;;
27313;SDS011;14800;48.174;9.798;2023-01-16T02:24:35;4.13;;;0.88;;
27313;SDS011;14800;48.174;9.798;2023-01-16T02:38:56;2.90;;;0.40;;
27313;SDS011;14800;48.174;9.798;2023-01-16T02:41:57;4.30;;;0.60;;
27313;SDS011;14800;48.174;9.798;2023-01-16T02:44:45;2.90;;;0.52;;
27313;SDS011;14800;48.174;9.798;2023-01-16T02:47:22;3.55;;;0.70;;
27313;SDS011;14800;48.174;9.798;2023-01-16T02:54:55;1.75;;;0.70;;
27313;SDS011;14800;48.174;9.798;2023-01-16T02:57:29;0.98;;;0.40;;
27313;SDS011;14800;48.174;9.798;2023-01-16T02:59:59;2.30;;;0.60;;
27313;SDS011;14800;48.174;9.798;2023-01-16T03:02:26;1.58;;;0.60;;
27313;SDS011;14800;48.174;9.798;2023-01-16T03:04:52;1.67;;;0.47;;
27313;SDS011;14800;48.174;9.798;2023-01-16T03:18:52;0.90;;;0.65;;
27313;SDS011;14800;48.174;9.798;2023-01-16T03:26:48;1.30;;;0.55;;
27313;SDS011;14800;48.174;9.798;2023-01-16T03:29:18;1.77;;;0.50;;
27313;SDS011;14800;48.174;9.798;2023-01-16T03:32:29;1.58;;;0.43;;
27313;SDS011;14800;48.174;9.798;2023-01-16T03:35:03;1.10;;;0.55;;
27313;SDS011;14800;48.174;9.798;2023-01-16T03:37:49;0.65;;;0.40;;
27313;SDS011;14800;48.174;9.798;2023-01-16T03:40:27;1.55;;;0.45;;
27313;SDS011;14800;48.174;9.798;2023-01-16T03:42:57;3.03;;;0.88;;
27313;SDS011;14800;48.174;9.798;2023-01-16T03:48:05;1.95;;;0.60;;
27313;SDS011;14800;48.174;9.798;2023-01-16T03:50:47;1.77;;;0.60;;
27313;SDS011;14800;48.174;9.798;2023-01-16T03:53:21;1.65;;;0.47;;
27313;SDS011;14800;48.174;9.798;2023-01-16T03:55:57;2.33;;;0.43;;
27313;SDS011;14800;48.174;9.798;2023-01-16T03:58:26;0.45;;;0.38;;
27313;SDS011;14800;48.174;9.798;2023-01-16T04:03:41;1.35;;;0.60;;
27313;SDS011;14800;48.174;9.798;2023-01-16T04:06:13;0.50;;;0.40;;
27313;SDS011;14800;48.174;9.798;2023-01-16T04:08:44;0.95;;;0.43;;
27313;SDS011;14800;48.174;9.798;2023-01-16T04:11:11;1.95;;;0.80;;
27313;SDS011;14800;48.174;9.798;2023-01-16T04:13:40;0.90;;;0.50;;
27313;SDS011;14800;48.174;9.798;2023-01-16T04:16:09;1.95;;;0.40;;
27313;SDS011;14800;48.174;9.798;2023-01-16T04:18:39;2.08;;;0.40;;
27313;SDS011;14800;48.174;9.798;2023-01-16T04:21:06;1.40;;;0.50;;
27313;SDS011;14800;48.174;9.798;2023-01-16T04:23:33;1.45;;;0.70;;
27313;SDS011;14800;48.174;9.798;2023-01-16T04:25:59;0.70;;;0.68;;
27313;SDS011;14800;48.174;9.798;2023-01-16T04:28:25;1.15;;;0.60;;
27313;SDS011;14800;48.174;9.798;2023-01-16T04:30:50;0.82;;;0.50;;
27313;SDS011;14800;48.174;9.798;2023-01-16T04:33:16;1.40;;;0.50;;
27313;SDS011;14800;48.174;9.798;2023-01-16T04:35:41;0.52;;;0.32;;
27313;SDS011;14800;48.174;9.798;2023-01-16T04:38:07;1.20;;;0.65;;
27313;SDS011;14800;48.174;9.798;2023-01-16T04:40:33;3.20;;;0.70;;
27313;SDS011;14800;48.174;9.798;2023-01-16T04:42:58;1.63;;;0.57;;
27313;SDS011;14800;48.174;9.798;2023-01-16T04:45:24;1.60;;;0.70;;
27313;SDS011;14800;48.174;9.798;2023-01-16T04:47:50;1.60;;;0.80;;
27313;SDS011;14800;48.174;9.798;2023-01-16T04:50:17;1.77;;;0.70;;
27313;SDS011;14800;48.174;9.798;2023-01-16T04:52:43;0.60;;;0.50;;
27313;SDS011;14800;48.174;9.798;2023-01-16T04:55:09;1.27;;;0.82;;
27313;SDS011;14800;48.174;9.798;2023-01-16T04:57:36;1.60;;;0.63;;
27313;SDS011;14800;48.174;9.798;2023-01-16T05:00:03;1.23;;;0.40;;
27313;SDS011;14800;48.174;9.798;2023-01-16T05:02:30;1.40;;;0.60;;
27313;SDS011;14800;48.174;9.798;2023-01-16T05:04:55;1.83;;;0.65;;
27313;SDS011;14800;48.174;9.798;2023-01-16T05:07:21;6.45;;;2.03;;
27313;SDS011;14800;48.174;9.798;2023-01-16T05:09:46;3.40;;;1.50;;
27313;SDS011;14800;48.174;9.798;2023-01-16T05:12:12;2.85;;;1.25;;
27313;SDS011;14800;48.174;9.798;2023-01-16T05:14:38;3.40;;;1.33;;
27313;SDS011;14800;48.174;9.798;2023-01-16T05:17:03;3.25;;;1.25;;
27313;SDS011;14800;48.174;9.798;2023-01-16T05:19:29;2.13;;;0.95;;
27313;SDS011;14800;48.174;9.798;2023-01-16T05:21:54;2.28;;;0.82;;
27313;SDS011;14800;48.174;9.798;2023-01-16T05:24:20;1.98;;;0.70;;
27313;SDS011;14800;48.174;9.798;2023-01-16T05:26:45;1.33;;;0.73;;
27313;SDS011;14800;48.174;9.798;2023-01-16T05:29:11;2.17;;;0.80;;
27313;SDS011;14800;48.174;9.798;2023-01-16T05:31:37;3.17;;;0.90;;
27313;SDS011;14800;48.174;9.798;2023-01-16T05:34:02;2.35;;;1.08;;
27313;SDS011;14800;48.174;9.798;2023-01-16T05:36:28;2.47;;;0.82;;
27313;SDS011;14800;48.174;9.798;2023-01-16T05:38:53;4.22;;;1.00;;
27313;SDS011;14800;48.174;9.798;2023-01-16T05:41:19;1.95;;;0.93;;
27313;SDS011;14800;48.174;9.798;2023-01-16T05:43:45;3.33;;;1.75;;
27313;SDS011;14800;48.174;9.798;2023-01-16T05:46:10;8.77;;;2.30;;
27313;SDS011;14800;48.174;9.798;2023-01-16T05:48:36;4.95;;;2.33;;
27313;SDS011;14800;48.174;9.798;2023-01-16T05:51:03;4.75;;;2.35;;
27313;SDS011;14800;48.174;9.798;2023-01-16T05:53:29;6.30;;;1.90;;
27313;SDS011;14800;48.174;9.798;2023-01-16T05:55:55;2.85;;;1.58;;
27313;SDS011;14800;48.174;9.798;2023-01-16T05:58:21;2.45;;;1.63;;
27313;SDS011;14800;48.174;9.798;2023-01-16T06:00:47;2.80;;;2.00;;
27313;SDS011;14800;48.174;9.798;2023-01-16T06:03:13;3.22;;;1.70;;
27313;SDS011;14800;48.174;9.798;2023-01-16T06:05:40;2.42;;;1.80;;
27313;SDS011;14800;48.174;9.798;2023-01-16T06:08:07;3.35;;;1.40;;
27313;SDS011;14800;48.174;9.798;2023-01-16T06:10:32;2.72;;;1.42;;
27313;SDS011;14800;48.174;9.798;2023-01-16T06:12:59;3.03;;;1.70;;
27313;SDS011;14800;48.174;9.798;2023-01-16T06:15:25;5.50;;;2.00;;
27313;SDS011;14800;48.174;9.798;2023-01-16T06:17:51;2.95;;;2.00;;
27313;SDS011;14800;48.174;9.798;2023-01-16T06:20:18;2.78;;;1.63;;
27313;SDS011;14800;48.174;9.798;2023-01-16T06:22:44;2.92;;;1.80;;
27313;SDS011;14800;48.174;9.798;2023-01-16T06:25:10;4.05;;;2.20;;
27313;SDS011;14800;48.174;9.798;2023-01-16T06:27:36;5.18;;;3.10;;
27313;SDS011;14800;48.174;9.798;2023-01-16T06:30:02;6.15;;;3.65;;
27313;SDS011;14800;48.174;9.798;2023-01-16T06:32:29;6.60;;;2.70;;
27313;SDS011;14800;48.174;9.798;2023-01-16T06:34:55;7.63;;;3.50;;
27313;SDS011;14800;48.174;9.798;2023-01-16T06:37:20;5.25;;;3.33;;
27313;SDS011;14800;48.174;9.798;2023-01-16T06:39:46;5.07;;;3.05;;
27313;SDS011;14800;48.174;9.798;2023-01-16T06:42:12;3.78;;;2.38;;
27313;SDS011;14800;48.174;9.798;2023-01-16T06:44:37;5.40;;;1.67;;
27313;SDS011;14800;48.174;9.798;2023-01-16T06:47:03;1.90;;;1.30;;
27313;SDS011;14800;48.174;9.798;2023-01-16T06:49:29;2.70;;;1.30;;
27313;SDS011;14800;48.174;9.798;2023-01-16T06:51:54;2.70;;;1.50;;
27313;SDS011;14800;48.174;9.798;2023-01-16T06:54:20;2.85;;;1.60;;
27313;SDS011;14800;48.174;9.798;2023-01-16T06:56:45;4.00;;;1.70;;
27313;SDS011;14800;48.174;9.798;2023-01-16T06:59:11;3.25;;;1.45;;
27313;SDS011;14800;48.174;9.798;2023-01-16T07:01:37;2.90;;;1.65;;
27313;SDS011;14800;48.174;9.798;2023-01-16T07:04:02;3.58;;;1.67;;
27313;SDS011;14800;48.174;9.798;2023-01-16T07:06:28;2.90;;;1.80;;
27313;SDS011;14800;48.174;9.798;2023-01-16T07:08:53;4.00;;;1.98;;
27313;SDS011;14800;48.174;9.798;2023-01-16T07:11:19;4.10;;;2.40;;
27313;SDS011;14800;48.174;9.798;2023-01-16T07:13:45;4.03;;;2.20;;
27313;SDS011;14800;48.174;9.798;2023-01-16T07:16:11;3.75;;;1.90;;
27313;SDS011;14800;48.174;9.798;2023-01-16T07:18:56;4.38;;;1.85;;
27313;SDS011;14800;48.174;9.798;2023-01-16T07:21:48;2.50;;;1.98;;
27313;SDS011;14800;48.174;9.798;2023-01-16T07:24:33;4.65;;;2.17;;
27313;SDS011;14800;48.174;9.798;2023-01-16T07:27:02;3.28;;;1.85;;
27313;SDS011;14800;48.174;9.798;2023-01-16T07:29:30;2.92;;;1.83;;
27313;SDS011;14800;48.174;9.798;2023-01-16T07:31:58;3.03;;;1.70;;
27313;SDS011;14800;48.174;9.798;2023-01-16T07:34:26;3.05;;;1.60;;
27313;SDS011;14800;48.174;9.798;2023-01-16T07:36:52;2.75;;;2.15;;
27313;SDS011;14800;48.174;9.798;2023-01-16T07:39:18;3.38;;;1.67;;
27313;SDS011;14800;48.174;9.798;2023-01-16T07:41:43;4.10;;;2.00;;
27313;SDS011;14800;48.174;9.798;2023-01-16T07:44:09;2.85;;;1.70;;
27313;SDS011;14800;48.174;9.798;2023-01-16T07:46:35;3.67;;;1.60;;
27313;SDS011;14800;48.174;9.798;2023-01-16T07:49:00;2.38;;;1.20;;
27313;SDS011;14800;48.174;9.798;2023-01-16T07:51:26;2.58;;;1.02;;
27313;SDS011;14800;48.174;9.798;2023-01-16T07:53:52;1.52;;;1.20;;
27313;SDS011;14800;48.174;9.798;2023-01-16T07:56:18;2.17;;;1.10;;
27313;SDS011;14800;48.174;9.798;2023-01-16T07:58:43;4.57;;;1.20;;
27313;SDS011;14800;48.174;9.798;2023-01-16T08:01:09;1.98;;;1.15;;
27313;SDS011;14800;48.174;9.798;2023-01-16T08:03:36;1.70;;;1.08;;
27313;SDS011;14800;48.174;9.798;2023-01-16T08:06:02;3.60;;;1.42;;
27313;SDS011;14800;48.174;9.798;2023-01-16T08:08:28;3.60;;;1.70;;
27313;SDS011;14800;48.174;9.798;2023-01-16T08:10:55;2.63;;;1.48;;
27313;SDS011;14800;48.174;9.798;2023-01-16T08:13:21;4.68;;;2.38;;
27313;SDS011;14800;48.174;9.798;2023-01-16T08:15:48;13.70;;;5.78;;
27313;SDS011;14800;48.174;9.798;2023-01-16T08:18:15;9.82;;;3.85;;
27313;SDS011;14800;48.174;9.798;2023-01-16T08:20:42;9.10;;;3.92;;
27313;SDS011;14800;48.174;9.798;2023-01-16T08:23:09;6.97;;;3.92;;
27313;SDS011;14800;48.174;9.798;2023-01-16T08:25:36;6.78;;;2.90;;
27313;SDS011;14800;48.174;9.798;2023-01-16T08:28:02;3.63;;;2.80;;
27313;SDS011;14800;48.174;9.798;2023-01-16T08:30:27;4.95;;;2.45;;
27313;SDS011;14800;48.174;9.798;2023-01-16T08:32:56;4.05;;;2.60;;
27313;SDS011;14800;48.174;9.798;2023-01-16T08:35:23;3.78;;;1.80;;
27313;SDS011;14800;48.174;9.798;2023-01-16T08:37:49;2.92;;;1.80;;
27313;SDS011;14800;48.174;9.798;2023-01-16T08:40:15;4.78;;;1.80;;
27313;SDS011;14800;48.174;9.798;2023-01-16T08:42:42;2.22;;;1.50;;
27313;SDS011;14800;48.174;9.798;2023-01-16T08:45:26;2.80;;;1.60;;
27313;SDS011;14800;48.174;9.798;2023-01-16T08:48:10;2.47;;;1.50;;
27313;SDS011;14800;48.174;9.798;2023-01-16T08:50:58;4.47;;;1.38;;
27313;SDS011;14800;48.174;9.798;2023-01-16T08:53:42;3.20;;;1.35;;
27313;SDS011;14800;48.174;9.798;2023-01-16T08:56:08;5.15;;;1.92;;
27313;SDS011;14800;48.174;9.798;2023-01-16T08:58:33;5.30;;;3.30;;
27313;SDS011;14800;48.174;9.798;2023-01-16T09:00:59;5.00;;;3.05;;
27313;SDS011;14800;48.174;9.798;2023-01-16T09:03:24;4.45;;;2.55;;
27313;SDS011;14800;48.174;9.798;2023-01-16T09:05:50;4.18;;;2.42;;
27313;SDS011;14800;48.174;9.798;2023-01-16T09:08:16;4.97;;;2.20;;
27313;SDS011;14800;48.174;9.798;2023-01-16T09:10:41;2.25;;;1.60;;
27313;SDS011;14800;48.174;9.798;2023-01-16T09:13:27;1.45;;;1.20;;
27313;SDS011;14800;48.174;9.798;2023-01-16T09:16:11;2.63;;;0.98;;
27313;SDS011;14800;48.174;9.798;2023-01-16T09:18:36;1.40;;;0.85;;
27313;SDS011;14800;48.174;9.798;2023-01-16T09:21:02;3.42;;;0.90;;
27313;SDS011;14800;48.174;9.798;2023-01-16T09:23:28;1.50;;;0.90;;
27313;SDS011;14800;48.174;9.798;2023-01-16T09:25:53;1.23;;;0.90;;
27313;SDS011;14800;48.174;9.798;2023-01-16T09:28:19;7.15;;;2.67;;
27313;SDS011;14800;48.174;9.798;2023-01-16T09:30:44;4.82;;;3.05;;
27313;SDS011;14800;48.174;9.798;2023-01-16T09:33:10;6.00;;;3.72;;
27313;SDS011;14800;48.174;9.798;2023-01-16T09:35:35;6.55;;;3.60;;
27313;SDS011;14800;48.174;9.798;2023-01-16T09:38:01;2.22;;;1.67;;
27313;SDS011;14800;48.174;9.798;2023-01-16T09:40:26;2.55;;;1.70;;
27313;SDS011;14800;48.174;9.798;2023-01-16T09:45:52;2.67;;;1.92;;
27313;SDS011;14800;48.174;9.798;2023-01-16T09:48:34;4.22;;;1.85;;
27313;SDS011;14800;48.174;9.798;2023-01-16T09:51:15;2.60;;;1.92;;
27313;SDS011;14800;48.174;9.798;2023-01-16T09:53:49;3.08;;;2.08;;
27313;SDS011;14800;48.174;9.798;2023-01-16T09:56:41;4.88;;;2.78;;
27313;SDS011;14800;48.174;9.798;2023-01-16T09:59:35;6.93;;;3.22;;
27313;SDS011;14800;48.174;9.798;2023-01-16T10:04:43;3.13;;;2.20;;
27313;SDS011;14800;48.174;9.798;2023-01-16T10:12:16;5.05;;;2.90;;
27313;SDS011;14800;48.174;9.798;2023-01-16T10:25:22;5.90;;;3.13;;
27313;SDS011;14800;48.174;9.798;2023-01-16T10:30:36;7.40;;;3.50;;
27313;SDS011;14800;48.174;9.798;2023-01-16T10:33:32;4.68;;;2.50;;
27313;SDS011;14800;48.174;9.798;2023-01-16T10:36:04;6.40;;;2.80;;
27313;SDS011;14800;48.174;9.798;2023-01-16T10:38:47;4.38;;;2.60;;
27313;SDS011;14800;48.174;9.798;2023-01-16T10:41:21;4.97;;;2.80;;
27313;SDS011;14800;48.174;9.798;2023-01-16T10:47:06;4.50;;;2.80;;
27313;SDS011;14800;48.174;9.798;2023-01-16T10:49:53;3.90;;;2.30;;
27313;SDS011;14800;48.174;9.798;2023-01-16T10:52:19;2.58;;;2.20;;
27313;SDS011;14800;48.174;9.798;2023-01-16T10:54:44;2.50;;;1.70;;
27313;SDS011;14800;48.174;9.798;2023-01-16T10:57:16;4.90;;;2.88;;
27313;SDS011;14800;48.174;9.798;2023-01-16T10:59:44;4.53;;;2.47;;
27313;SDS011;14800;48.174;9.798;2023-01-16T11:02:16;2.40;;;1.95;;
27313;SDS011;14800;48.174;9.798;2023-01-16T11:04:47;9.48;;;3.20;;
27313;SDS011;14800;48.174;9.798;2023-01-16T11:07:17;3.22;;;2.08;;
27313;SDS011;14800;48.174;9.798;2023-01-16T11:09:45;2.88;;;1.90;;
27313;SDS011;14800;48.174;9.798;2023-01-16T11:12:13;3.08;;;2.05;;
27313;SDS011;14800;48.174;9.798;2023-01-16T11:15:13;5.25;;;2.20;;
27313;SDS011;14800;48.174;9.798;2023-01-16T11:17:59;2.30;;;2.10;;
27313;SDS011;14800;48.174;9.798;2023-01-16T11:20:44;4.63;;;2.28;;
27313;SDS011;14800;48.174;9.798;2023-01-16T11:23:18;3.42;;;2.50;;
27313;SDS011;14800;48.174;9.798;2023-01-16T11:25:46;6.43;;;2.60;;
27313;SDS011;14800;48.174;9.798;2023-01-16T11:28:17;3.47;;;2.10;;
27313;SDS011;14800;48.174;9.798;2023-01-16T11:30:48;2.63;;;2.20;;
27313;SDS011;14800;48.174;9.798;2023-01-16T11:33:19;3.55;;;2.10;;
27313;SDS011;14800;48.174;9.798;2023-01-16T11:35:51;4.05;;;2.10;;
27313;SDS011;14800;48.174;9.798;2023-01-16T11:38:20;4.65;;;2.55;;
27313;SDS011;14800;48.174;9.798;2023-01-16T11:40:47;5.25;;;2.70;;
27313;SDS011;14800;48.174;9.798;2023-01-16T11:43:28;3.50;;;1.92;;
27313;SDS011;14800;48.174;9.798;2023-01-16T11:46:30;4.97;;;2.20;;
27313;SDS011;14800;48.174;9.798;2023-01-16T11:49:03;2.53;;;1.75;;
27313;SDS011;14800;48.174;9.798;2023-01-16T11:51:39;3.72;;;2.15;;
27313;SDS011;14800;48.174;9.798;2023-01-16T11:54:05;1.52;;;1.10;;
27313;SDS011;14800;48.174;9.798;2023-01-16T11:56:55;2.58;;;1.02;;
27313;SDS011;14800;48.174;9.798;2023-01-16T12:11:06;2.10;;;1.20;;
27313;SDS011;14800;48.174;9.798;2023-01-16T12:30:29;1.35;;;1.17;;
27313;SDS011;14800;48.174;9.798;2023-01-16T12:33:31;2.15;;;0.90;;
27313;SDS011;14800;48.174;9.798;2023-01-16T12:38:37;2.08;;;1.40;;
27313;SDS011;14800;48.174;9.798;2023-01-16T12:41:23;6.28;;;1.33;;
27313;SDS011;14800;48.174;9.798;2023-01-16T12:44:39;4.72;;;3.47;;
27313;SDS011;14800;48.174;9.798;2023-01-16T12:47:31;7.03;;;3.15;;
27313;SDS011;14800;48.174;9.798;2023-01-16T12:50:32;5.43;;;2.92;;
27313;SDS011;14800;48.174;9.798;2023-01-16T12:53:37;4.85;;;2.60;;
27313;SDS011;14800;48.174;9.798;2023-01-16T12:58:53;4.72;;;1.67;;
27313;SDS011;14800;48.174;9.798;2023-01-16T13:01:28;3.45;;;2.40;;
27313;SDS011;14800;48.174;9.798;2023-01-16T13:03:59;2.95;;;2.10;;
27313;SDS011;14800;48.174;9.798;2023-01-16T13:09:04;4.72;;;1.70;;
27313;SDS011;14800;48.174;9.798;2023-01-16T13:12:03;2.60;;;1.60;;
27313;SDS011;14800;48.174;9.798;2023-01-16T13:14:54;2.47;;;1.75;;
27313;SDS011;14800;48.174;9.798;2023-01-16T13:17:24;2.95;;;1.70;;
27313;SDS011;14800;48.174;9.798;2023-01-16T13:19:59;3.10;;;1.58;;
27313;SDS011;14800;48.174;9.798;2023-01-16T13:22:30;2.15;;;1.33;;
27313;SDS011;14800;48.174;9.798;2023-01-16T13:25:09;3.60;;;1.38;;
27313;SDS011;14800;48.174;9.798;2023-01-16T13:27:50;2.83;;;1.63;;
27313;SDS011;14800;48.174;9.798;2023-01-16T13:32:58;4.18;;;1.90;;
27313;SDS011;14800;48.174;9.798;2023-01-16T13:41:15;3.28;;;2.20;;
27313;SDS011;14800;48.174;9.798;2023-01-16T13:43:48;3.50;;;1.40;;
27313;SDS011;14800;48.174;9.798;2023-01-16T13:46:35;2.90;;;2.00;;
27313;SDS011;14800;48.174;9.798;2023-01-16T13:49:02;5.70;;;3.00;;
27313;SDS011;14800;48.174;9.798;2023-01-16T13:51:30;5.70;;;2.70;;
27313;SDS011;14800;48.174;9.798;2023-01-16T13:54:04;5.18;;;2.60;;
27313;SDS011;14800;48.174;9.798;2023-01-16T13:56:39;2.03;;;1.58;;
27313;SDS011;14800;48.174;9.798;2023-01-16T13:59:06;3.05;;;1.60;;
27313;SDS011;14800;48.174;9.798;2023-01-16T14:04:24;2.22;;;1.60;;
27313;SDS011;14800;48.174;9.798;2023-01-16T14:06:53;3.15;;;1.35;;
27313;SDS011;14800;48.174;9.798;2023-01-16T14:12:40;4.35;;;1.83;;
27313;SDS011;14800;48.174;9.798;2023-01-16T14:15:55;7.63;;;1.38;;
27313;SDS011;14800;48.174;9.798;2023-01-16T14:24:02;3.30;;;1.40;;
27313;SDS011;14800;48.174;9.798;2023-01-16T14:26:46;3.40;;;1.23;;
27313;SDS011;14800;48.174;9.798;2023-01-16T14:29:23;3.83;;;1.50;;
27313;SDS011;14800;48.174;9.798;2023-01-16T14:31:56;3.08;;;1.38;;
27313;SDS011;14800;48.174;9.798;2023-01-16T14:34:48;9.02;;;2.45;;
27313;SDS011;14800;48.174;9.798;2023-01-16T14:37:30;3.60;;;1.85;;
27313;SDS011;14800;48.174;9.798;2023-01-16T14:42:35;4.82;;;1.80;;
27313;SDS011;14800;48.174;9.798;2023-01-16T14:45:38;2.95;;;1.30;;
27313;SDS011;14800;48.174;9.798;2023-01-16T14:57:16;0.90;;;0.60;;
27313;SDS011;14800;48.174;9.798;2023-01-16T14:59:44;1.15;;;0.50;;
27313;SDS011;14800;48.174;9.798;2023-01-16T15:02:33;1.10;;;0.50;;
27313;SDS011;14800;48.174;9.798;2023-01-16T15:10:16;2.03;;;1.17;;
27313;SDS011;14800;48.174;9.798;2023-01-16T15:13:12;1.35;;;0.77;;
27313;SDS011;14800;48.174;9.798;2023-01-16T15:15:41;2.22;;;0.90;;
27313;SDS011;14800;48.174;9.798;2023-01-16T15:18:11;2.65;;;1.00;;
27313;SDS011;14800;48.174;9.798;2023-01-16T15:20:57;2.40;;;1.20;;
27313;SDS011;14800;48.174;9.798;2023-01-16T15:23:43;1.70;;;1.10;;
27313;SDS011;14800;48.174;9.798;2023-01-16T15:28:46;2.50;;;1.73;;
27313;SDS011;14800;48.174;9.798;2023-01-16T15:31:31;2.58;;;1.40;;
27313;SDS011;14800;48.174;9.798;2023-01-16T15:34:18;2.65;;;1.65;;
27313;SDS011;14800;48.174;9.798;2023-01-16T15:36:50;4.93;;;1.80;;
27313;SDS011;14800;48.174;9.798;2023-01-16T15:42:10;1.98;;;1.20;;
27313;SDS011;14800;48.174;9.798;2023-01-16T15:44:59;3.20;;;1.60;;
27313;SDS011;14800;48.174;9.798;2023-01-16T15:47:58;2.90;;;0.90;;
27313;SDS011;14800;48.174;9.798;2023-01-16T15:53:29;1.70;;;1.15;;
27313;SDS011;14800;48.174;9.798;2023-01-16T15:56:05;2.92;;;1.50;;
27313;SDS011;14800;48.174;9.798;2023-01-16T15:58:33;2.45;;;1.60;;
27313;SDS011;14800;48.174;9.798;2023-01-16T16:01:01;4.53;;;2.97;;
27313;SDS011;14800;48.174;9.798;2023-01-16T16:03:29;15.13;;;5.13;;
27313;SDS011;14800;48.174;9.798;2023-01-16T16:06:16;13.80;;;6.88;;
27313;SDS011;14800;48.174;9.798;2023-01-16T16:08:52;5.13;;;2.05;;
27313;SDS011;14800;48.174;9.798;2023-01-16T16:11:20;3.47;;;1.60;;
27313;SDS011;14800;48.174;9.798;2023-01-16T16:14:09;1.33;;;1.10;;
27313;SDS011;14800;48.174;9.798;2023-01-16T16:17:17;2.47;;;1.38;;
27313;SDS011;14800;48.174;9.798;2023-01-16T16:28:04;3.00;;;1.92;;
27313;SDS011;14800;48.174;9.798;2023-01-16T16:30:41;2.28;;;1.40;;
27313;SDS011;14800;48.174;9.798;2023-01-16T16:33:17;3.45;;;1.80;;
27313;SDS011;14800;48.174;9.798;2023-01-16T16:35:51;3.10;;;1.20;;
27313;SDS011;14800;48.174;9.798;2023-01-16T16:38:20;2.33;;;1.00;;
27313;SDS011;14800;48.174;9.798;2023-01-16T16:43:57;1.67;;;1.33;;
27313;SDS011;14800;48.174;9.798;2023-01-16T16:48:53;3.30;;;1.85;;
27313;SDS011;14800;48.174;9.798;2023-01-16T16:51:25;1.95;;;1.10;;
27313;SDS011;14800;48.174;9.798;2023-01-16T16:54:14;2.50;;;1.98;;
27313;SDS011;14800;48.174;9.798;2023-01-16T16:56:43;3.03;;;2.22;;
27313;SDS011;14800;48.174;9.798;2023-01-16T16:59:27;1.55;;;1.35;;
27313;SDS011;14800;48.174;9.798;2023-01-16T17:01:57;3.63;;;1.20;;
27313;SDS011;14800;48.174;9.798;2023-01-16T17:04:28;0.90;;;0.90;;
27313;SDS011;14800;48.174;9.798;2023-01-16T17:06:54;2.30;;;1.00;;
27313;SDS011;14800;48.174;9.798;2023-01-16T17:09:20;1.33;;;0.90;;
27313;SDS011;14800;48.174;9.798;2023-01-16T17:11:47;1.05;;;0.95;;
27313;SDS011;14800;48.174;9.798;2023-01-16T17:14:13;2.28;;;0.98;;
27313;SDS011;14800;48.174;9.798;2023-01-16T17:16:38;0.73;;;0.70;;
27313;SDS011;14800;48.174;9.798;2023-01-16T17:21:43;1.30;;;0.50;;
27313;SDS011;14800;48.174;9.798;2023-01-16T17:24:12;2.80;;;1.17;;
27313;SDS011;14800;48.174;9.798;2023-01-16T17:26:40;1.70;;;1.00;;
27313;SDS011;14800;48.174;9.798;2023-01-16T17:29:06;1.63;;;0.85;;
27313;SDS011;14800;48.174;9.798;2023-01-16T17:31:31;0.90;;;0.73;;
27313;SDS011;14800;48.174;9.798;2023-01-16T17:33:59;0.90;;;0.50;;
27313;SDS011;14800;48.174;9.798;2023-01-16T17:36:25;0.80;;;0.60;;
27313;SDS011;14800;48.174;9.798;2023-01-16T17:38:52;1.63;;;0.68;;
27313;SDS011;14800;48.174;9.798;2023-01-16T17:41:23;1.23;;;0.73;;
27313;SDS011;14800;48.174;9.798;2023-01-16T17:44:13;3.13;;;1.10;;
27313;SDS011;14800;48.174;9.798;2023-01-16T17:47:07;2.28;;;1.30;;
27313;SDS011;14800;48.174;9.798;2023-01-16T17:49:33;1.48;;;0.80;;
27313;SDS011;14800;48.174;9.798;2023-01-16T17:52:22;2.75;;;1.90;;
27313;SDS011;14800;48.174;9.798;2023-01-16T17:54:48;1.40;;;1.13;;
27313;SDS011;14800;48.174;9.798;2023-01-16T17:57:33;2.63;;;0.88;;
27313;SDS011;14800;48.174;9.798;2023-01-16T17:59:58;0.70;;;0.68;;
27313;SDS011;14800;48.174;9.798;2023-01-16T18:02:24;2.33;;;0.65;;
27313;SDS011;14800;48.174;9.798;2023-01-16T18:04:50;0.52;;;0.30;;
27313;SDS011;14800;48.174;9.798;2023-01-16T18:07:16;0.70;;;0.40;;
27313;SDS011;14800;48.174;9.798;2023-01-16T18:09:42;1.75;;;0.68;;
27313;SDS011;14800;48.174;9.798;2023-01-16T18:12:10;1.45;;;0.38;;